sensor_id;sensor_type;location;lat;lon;timestamp;pressure;altitude;pressure_sealevel;temperature;humidity
79645;BME280;69117;47.148;18.954;2023-12-20T00:02:58;100711.50;;;-1.14;100.00
79645;BME280;69117;47.148;18.954;2023-12-20T00:06:00;100721.63;;;-1.08;100.00
79645;BME280;69117;47.148;18.954;2023-12-20T00:09:02;100700.28;;;-1.15;100.00
79645;BME280;69117;47.148;18.954;2023-12-20T00:12:03;100713.78;;;-1.07;100.00
79645;BME280;69117;47.148;18.954;2023-12-20T00:15:05;100708.66;;;-1.08;100.00
79645;BME280;69117;47.148;18.954;2023-12-20T00:18:07;100706.00;;;-1.07;100.00
79645;BME280;69117;47.148;18.954;2023-12-20T00:21:09;100707.59;;;-1.03;100.00
79645;BME280;69117;47.148;18.954;2023-12-20T00:24:10;100697.47;;;-1.09;100.00
79645;BME280;69117;47.148;18.954;2023-12-20T00:27:12;100694.88;;;-1.09;100.00
79645;BME280;69117;47.148;18.954;2023-12-20T00:30:14;100678.66;;;-1.14;100.00
79645;BME280;69117;47.148;18.954;2023-12-20T00:33:16;100680.34;;;-1.13;100.00
79645;BME280;69117;47.148;18.954;2023-12-20T00:36:17;100684.69;;;-1.13;100.00
79645;BME280;69117;47.148;18.954;2023-12-20T00:39:19;100680.34;;;-1.13;100.00
79645;BME280;69117;47.148;18.954;2023-12-20T00:42:21;100671.97;;;-1.20;100.00
79645;BME280;69117;47.148;18.954;2023-12-20T00:45:22;100660.03;;;-1.24;100.00
79645;BME280;69117;47.148;18.954;2023-12-20T00:48:24;100651.41;;;-1.24;100.00
79645;BME280;69117;47.148;18.954;2023-12-20T00:51:26;100649.72;;;-1.25;100.00
79645;BME280;69117;47.148;18.954;2023-12-20T00:54:27;100655.03;;;-1.28;100.00
79645;BME280;69117;47.148;18.954;2023-12-20T00:57:29;100643.84;;;-1.29;100.00
79645;BME280;69117;47.148;18.954;2023-12-20T01:00:33;100631.00;;;-1.32;100.00
79645;BME280;69117;47.148;18.954;2023-12-20T01:03:34;100636.72;;;-1.24;100.00
79645;BME280;69117;47.148;18.954;2023-12-20T01:06:36;100633.50;;;-1.30;100.00
79645;BME280;69117;47.148;18.954;2023-12-20T01:09:38;100613.03;;;-1.36;100.00
79645;BME280;69117;47.148;18.954;2023-12-20T01:12:40;100604.25;;;-1.32;100.00
79645;BME280;69117;47.148;18.954;2023-12-20T01:15:42;100615.38;;;-1.30;100.00
79645;BME280;69117;47.148;18.954;2023-12-20T01:18:44;100612.78;;;-1.30;100.00
79645;BME280;69117;47.148;18.954;2023-12-20T01:21:45;100584.44;;;-1.55;100.00
79645;BME280;69117;47.148;18.954;2023-12-20T01:24:47;100592.63;;;-1.44;100.00
79645;BME280;69117;47.148;18.954;2023-12-20T01:27:49;100595.03;;;-1.40;100.00
79645;BME280;69117;47.148;18.954;2023-12-20T01:30:51;100578.84;;;-1.45;100.00
79645;BME280;69117;47.148;18.954;2023-12-20T01:33:53;100584.53;;;-1.36;100.00
79645;BME280;69117;47.148;18.954;2023-12-20T01:36:54;100575.16;;;-1.39;100.00
79645;BME280;69117;47.148;18.954;2023-12-20T01:39:56;100565.06;;;-1.45;100.00
79645;BME280;69117;47.148;18.954;2023-12-20T01:43:03;100571.06;;;-1.45;100.00
79645;BME280;69117;47.148;18.954;2023-12-20T01:46:07;100544.75;;;-1.56;100.00
79645;BME280;69117;47.148;18.954;2023-12-20T01:49:09;100562.94;;;-1.57;100.00
79645;BME280;69117;47.148;18.954;2023-12-20T01:52:11;100557.63;;;-1.54;100.00
79645;BME280;69117;47.148;18.954;2023-12-20T01:55:14;100565.22;;;-1.50;100.00
79645;BME280;69117;47.148;18.954;2023-12-20T01:58:17;100562.88;;;-1.56;100.00
79645;BME280;69117;47.148;18.954;2023-12-20T02:01:19;100551.03;;;-1.62;100.00
79645;BME280;69117;47.148;18.954;2023-12-20T02:04:21;100541.00;;;-1.69;100.00
79645;BME280;69117;47.148;18.954;2023-12-20T02:07:22;100532.44;;;-1.71;100.00
79645;BME280;69117;47.148;18.954;2023-12-20T02:10:25;100557.84;;;-1.59;100.00
79645;BME280;69117;47.148;18.954;2023-12-20T02:13:27;100547.72;;;-1.65;100.00
79645;BME280;69117;47.148;18.954;2023-12-20T02:16:28;100536.28;;;-1.59;100.00
79645;BME280;69117;47.148;18.954;2023-12-20T02:19:30;100518.53;;;-1.69;100.00
79645;BME280;69117;47.148;18.954;2023-12-20T02:22:33;100520.78;;;-1.61;100.00
79645;BME280;69117;47.148;18.954;2023-12-20T02:25:35;100508.88;;;-1.65;100.00
79645;BME280;69117;47.148;18.954;2023-12-20T02:28:37;100503.56;;;-1.62;100.00
79645;BME280;69117;47.148;18.954;2023-12-20T02:31:39;100489.78;;;-1.63;100.00
79645;BME280;69117;47.148;18.954;2023-12-20T02:34:40;100498.81;;;-1.51;100.00
79645;BME280;69117;47.148;18.954;2023-12-20T02:37:42;100494.47;;;-1.50;100.00
79645;BME280;69117;47.148;18.954;2023-12-20T02:40:44;100494.59;;;-1.53;100.00
79645;BME280;69117;47.148;18.954;2023-12-20T02:43:50;100489.53;;;-1.56;100.00
79645;BME280;69117;47.148;18.954;2023-12-20T02:46:52;100487.06;;;-1.59;100.00
79645;BME280;69117;47.148;18.954;2023-12-20T02:49:53;100471.00;;;-1.68;100.00
79645;BME280;69117;47.148;18.954;2023-12-20T02:52:55;100477.94;;;-1.68;100.00
79645;BME280;69117;47.148;18.954;2023-12-20T02:55:57;100471.09;;;-1.69;100.00
79645;BME280;69117;47.148;18.954;2023-12-20T02:58:59;100474.44;;;-1.67;100.00
79645;BME280;69117;47.148;18.954;2023-12-20T03:02:01;100461.50;;;-1.67;100.00
79645;BME280;69117;47.148;18.954;2023-12-20T03:05:03;100473.91;;;-1.55;100.00
79645;BME280;69117;47.148;18.954;2023-12-20T03:08:05;100461.22;;;-1.61;100.00
79645;BME280;69117;47.148;18.954;2023-12-20T03:11:07;100461.50;;;-1.67;100.00
79645;BME280;69117;47.148;18.954;2023-12-20T03:14:09;100461.88;;;-1.56;100.00
79645;BME280;69117;47.148;18.954;2023-12-20T03:17:11;100461.69;;;-1.51;100.00
79645;BME280;69117;47.148;18.954;2023-12-20T03:20:13;100453.41;;;-1.59;100.00
79645;BME280;69117;47.148;18.954;2023-12-20T03:23:15;100442.09;;;-1.57;100.00
79645;BME280;69117;47.148;18.954;2023-12-20T03:26:16;100449.06;;;-1.59;100.00
79645;BME280;69117;47.148;18.954;2023-12-20T03:29:18;100455.03;;;-1.57;100.00
79645;BME280;69117;47.148;18.954;2023-12-20T03:32:20;100448.16;;;-1.58;100.00
79645;BME280;69117;47.148;18.954;2023-12-20T03:35:21;100449.06;;;-1.59;100.00
79645;BME280;69117;47.148;18.954;2023-12-20T03:38:24;100440.06;;;-1.71;100.00
79645;BME280;69117;47.148;18.954;2023-12-20T03:41:25;100440.91;;;-1.70;100.00
79645;BME280;69117;47.148;18.954;2023-12-20T03:44:27;100436.50;;;-1.68;100.00
79645;BME280;69117;47.148;18.954;2023-12-20T03:47:29;100431.63;;;-1.76;100.00
79645;BME280;69117;47.148;18.954;2023-12-20T03:50:30;100437.59;;;-1.74;100.00
79645;BME280;69117;47.148;18.954;2023-12-20T03:53:32;100435.53;;;-1.86;100.00
79645;BME280;69117;47.148;18.954;2023-12-20T03:56:34;100428.34;;;-1.79;100.00
79645;BME280;69117;47.148;18.954;2023-12-20T03:59:38;100434.75;;;-1.88;100.00
79645;BME280;69117;47.148;18.954;2023-12-20T04:02:40;100420.69;;;-2.03;100.00
79645;BME280;69117;47.148;18.954;2023-12-20T04:05:42;100430.97;;;-2.01;100.00
79645;BME280;69117;47.148;18.954;2023-12-20T04:08:44;100436.94;;;-1.99;100.00
79645;BME280;69117;47.148;18.954;2023-12-20T04:11:48;100435.00;;;-1.94;100.00
79645;BME280;69117;47.148;18.954;2023-12-20T04:14:50;100436.06;;;-2.00;100.00
79645;BME280;69117;47.148;18.954;2023-12-20T04:17:52;100425.22;;;-2.08;100.00
79645;BME280;69117;47.148;18.954;2023-12-20T04:20:54;100421.78;;;-2.09;100.00
79645;BME280;69117;47.148;18.954;2023-12-20T04:23:56;100428.31;;;-2.00;100.00
79645;BME280;69117;47.148;18.954;2023-12-20T04:26:57;100419.53;;;-1.96;100.00
79645;BME280;69117;47.148;18.954;2023-12-20T04:29:59;100432.03;;;-1.85;100.00
79645;BME280;69117;47.148;18.954;2023-12-20T04:33:01;100428.19;;;-1.97;100.00
79645;BME280;69117;47.148;18.954;2023-12-20T04:36:03;100412.66;;;-1.97;100.00
79645;BME280;69117;47.148;18.954;2023-12-20T04:39:05;100399.22;;;-2.05;100.00
79645;BME280;69117;47.148;18.954;2023-12-20T04:42:08;100407.06;;;-1.86;100.00
79645;BME280;69117;47.148;18.954;2023-12-20T04:45:09;100397.22;;;-1.78;100.00
79645;BME280;69117;47.148;18.954;2023-12-20T04:48:15;100382.56;;;-1.79;100.00
79645;BME280;69117;47.148;18.954;2023-12-20T04:51:17;100394.28;;;-1.70;100.00
79645;BME280;69117;47.148;18.954;2023-12-20T04:54:18;100407.09;;;-1.67;100.00
79645;BME280;69117;47.148;18.954;2023-12-20T04:57:20;100402.28;;;-1.75;100.00
79645;BME280;69117;47.148;18.954;2023-12-20T05:00:22;100409.78;;;-1.69;100.00
79645;BME280;69117;47.148;18.954;2023-12-20T05:03:24;100418.00;;;-1.59;100.00
79645;BME280;69117;47.148;18.954;2023-12-20T05:06:25;100407.63;;;-1.59;100.00
79645;BME280;69117;47.148;18.954;2023-12-20T05:09:27;100404.72;;;-1.72;100.00
79645;BME280;69117;47.148;18.954;2023-12-20T05:12:28;100411.44;;;-1.68;100.00
79645;BME280;69117;47.148;18.954;2023-12-20T05:15:30;100406.34;;;-1.69;100.00
79645;BME280;69117;47.148;18.954;2023-12-20T05:18:32;100400.03;;;-1.64;100.00
79645;BME280;69117;47.148;18.954;2023-12-20T05:21:33;100405.75;;;-1.55;100.00
79645;BME280;69117;47.148;18.954;2023-12-20T05:24:35;100412.72;;;-1.57;100.00
79645;BME280;69117;47.148;18.954;2023-12-20T05:27:37;100411.66;;;-1.72;100.00
79645;BME280;69117;47.148;18.954;2023-12-20T05:30:40;100404.25;;;-1.61;100.00
79645;BME280;69117;47.148;18.954;2023-12-20T05:33:42;100380.06;;;-1.60;100.00
79645;BME280;69117;47.148;18.954;2023-12-20T05:36:43;100371.84;;;-1.90;100.00
79645;BME280;69117;47.148;18.954;2023-12-20T05:39:45;100375.03;;;-1.83;100.00
79645;BME280;69117;47.148;18.954;2023-12-20T05:42:47;100357.56;;;-1.78;100.00
79645;BME280;69117;47.148;18.954;2023-12-20T05:45:49;100341.63;;;-1.69;100.00
79645;BME280;69117;47.148;18.954;2023-12-20T05:48:51;100353.31;;;-1.61;100.00
79645;BME280;69117;47.148;18.954;2023-12-20T05:51:54;100349.53;;;-1.72;100.00
79645;BME280;69117;47.148;18.954;2023-12-20T05:54:56;100353.66;;;-1.89;100.00
79645;BME280;69117;47.148;18.954;2023-12-20T05:57:59;100336.06;;;-1.80;100.00
79645;BME280;69117;47.148;18.954;2023-12-20T06:01:05;100358.88;;;-1.70;100.00
79645;BME280;69117;47.148;18.954;2023-12-20T06:04:07;100382.44;;;-1.76;100.00
79645;BME280;69117;47.148;18.954;2023-12-20T06:07:12;100383.22;;;-1.74;100.00
79645;BME280;69117;47.148;18.954;2023-12-20T06:10:14;100381.56;;;-1.75;100.00
79645;BME280;69117;47.148;18.954;2023-12-20T06:13:16;100368.41;;;-1.91;100.00
79645;BME280;69117;47.148;18.954;2023-12-20T06:16:17;100378.44;;;-1.63;100.00
79645;BME280;69117;47.148;18.954;2023-12-20T06:19:19;100371.19;;;-1.75;100.00
79645;BME280;69117;47.148;18.954;2023-12-20T06:22:21;100346.72;;;-1.68;100.00
79645;BME280;69117;47.148;18.954;2023-12-20T06:25:23;100347.91;;;-1.75;100.00
79645;BME280;69117;47.148;18.954;2023-12-20T06:28:24;100357.50;;;-1.58;100.00
79645;BME280;69117;47.148;18.954;2023-12-20T06:31:26;100334.38;;;-1.81;100.00
79645;BME280;69117;47.148;18.954;2023-12-20T06:34:28;100335.31;;;-1.64;100.00
79645;BME280;69117;47.148;18.954;2023-12-20T06:37:30;100328.56;;;-1.47;100.00
79645;BME280;69117;47.148;18.954;2023-12-20T06:40:31;100330.59;;;-1.54;100.00
79645;BME280;69117;47.148;18.954;2023-12-20T06:43:33;100342.28;;;-1.45;100.00
79645;BME280;69117;47.148;18.954;2023-12-20T06:46:49;100329.84;;;-1.57;100.00
79645;BME280;69117;47.148;18.954;2023-12-20T06:49:51;100324.78;;;-1.79;100.00
79645;BME280;69117;47.148;18.954;2023-12-20T06:52:53;100339.88;;;-1.69;100.00
79645;BME280;69117;47.148;18.954;2023-12-20T06:55:55;100341.50;;;-1.66;100.00
79645;BME280;69117;47.148;18.954;2023-12-20T06:59:00;100341.41;;;-1.65;100.00
79645;BME280;69117;47.148;18.954;2023-12-20T07:02:01;100329.16;;;-1.61;100.00
79645;BME280;69117;47.148;18.954;2023-12-20T07:05:03;100345.13;;;-1.51;100.00
79645;BME280;69117;47.148;18.954;2023-12-20T07:08:06;100346.75;;;-1.49;100.00
79645;BME280;69117;47.148;18.954;2023-12-20T07:11:08;100359.66;;;-1.68;100.00
79645;BME280;69117;47.148;18.954;2023-12-20T07:14:09;100379.94;;;-1.77;100.00
79645;BME280;69117;47.148;18.954;2023-12-20T07:17:11;100375.16;;;-1.87;100.00
79645;BME280;69117;47.148;18.954;2023-12-20T07:20:15;100383.44;;;-1.78;100.00
79645;BME280;69117;47.148;18.954;2023-12-20T07:23:16;100394.56;;;-1.76;100.00
79645;BME280;69117;47.148;18.954;2023-12-20T07:26:18;100384.28;;;-1.78;100.00
79645;BME280;69117;47.148;18.954;2023-12-20T07:29:20;100397.63;;;-1.87;100.00
79645;BME280;69117;47.148;18.954;2023-12-20T07:32:22;100400.50;;;-1.95;100.00
79645;BME280;69117;47.148;18.954;2023-12-20T07:35:23;100388.53;;;-1.97;100.00
79645;BME280;69117;47.148;18.954;2023-12-20T07:38:25;100396.16;;;-1.94;100.00
79645;BME280;69117;47.148;18.954;2023-12-20T07:41:26;100390.88;;;-1.91;100.00
79645;BME280;69117;47.148;18.954;2023-12-20T07:44:28;100391.47;;;-1.85;100.00
79645;BME280;69117;47.148;18.954;2023-12-20T07:47:30;100380.72;;;-1.75;100.00
79645;BME280;69117;47.148;18.954;2023-12-20T07:50:31;100383.56;;;-1.81;100.00
79645;BME280;69117;47.148;18.954;2023-12-20T07:53:34;100393.41;;;-1.90;100.00
79645;BME280;69117;47.148;18.954;2023-12-20T07:56:36;100378.56;;;-1.86;100.00
79645;BME280;69117;47.148;18.954;2023-12-20T07:59:38;100387.81;;;-2.01;100.00
79645;BME280;69117;47.148;18.954;2023-12-20T08:02:40;100392.44;;;-1.87;100.00
79645;BME280;69117;47.148;18.954;2023-12-20T08:05:42;100392.19;;;-1.81;100.00
79645;BME280;69117;47.148;18.954;2023-12-20T08:08:43;100388.00;;;-1.85;100.00
79645;BME280;69117;47.148;18.954;2023-12-20T08:11:48;100376.66;;;-1.81;100.00
79645;BME280;69117;47.148;18.954;2023-12-20T08:14:50;100379.69;;;-1.71;100.00
79645;BME280;69117;47.148;18.954;2023-12-20T08:17:51;100381.22;;;-1.67;100.00
79645;BME280;69117;47.148;18.954;2023-12-20T08:20:53;100375.84;;;-1.63;100.00
79645;BME280;69117;47.148;18.954;2023-12-20T08:23:55;100358.75;;;-1.67;100.00
79645;BME280;69117;47.148;18.954;2023-12-20T08:26:57;100372.22;;;-1.58;100.00
79645;BME280;69117;47.148;18.954;2023-12-20T08:29:58;100371.38;;;-1.59;100.00
79645;BME280;69117;47.148;18.954;2023-12-20T08:33:00;100361.84;;;-1.58;100.00
79645;BME280;69117;47.148;18.954;2023-12-20T08:36:02;100356.75;;;-1.60;100.00
79645;BME280;69117;47.148;18.954;2023-12-20T08:39:06;100367.88;;;-1.58;100.00
79645;BME280;69117;47.148;18.954;2023-12-20T08:42:09;100372.28;;;-1.60;100.00
79645;BME280;69117;47.148;18.954;2023-12-20T08:45:11;100357.16;;;-1.69;100.00
79645;BME280;69117;47.148;18.954;2023-12-20T08:48:13;100372.16;;;-1.57;100.00
79645;BME280;69117;47.148;18.954;2023-12-20T08:51:14;100372.84;;;-1.53;100.00
79645;BME280;69117;47.148;18.954;2023-12-20T08:54:16;100370.97;;;-1.50;100.00
79645;BME280;69117;47.148;18.954;2023-12-20T08:57:22;100366.75;;;-1.52;100.00
79645;BME280;69117;47.148;18.954;2023-12-20T09:00:25;100365.84;;;-1.51;100.00
79645;BME280;69117;47.148;18.954;2023-12-20T09:03:29;100376.16;;;-1.31;100.00
79645;BME280;69117;47.148;18.954;2023-12-20T09:06:30;100377.00;;;-1.30;100.00
79645;BME280;69117;47.148;18.954;2023-12-20T09:09:32;100380.09;;;-1.22;100.00
79645;BME280;69117;47.148;18.954;2023-12-20T09:12:34;100362.94;;;-1.25;100.00
79645;BME280;69117;47.148;18.954;2023-12-20T09:15:35;100368.34;;;-1.29;100.00
79645;BME280;69117;47.148;18.954;2023-12-20T09:18:37;100377.00;;;-1.30;100.00
79645;BME280;69117;47.148;18.954;2023-12-20T09:21:39;100366.72;;;-1.32;100.00
79645;BME280;69117;47.148;18.954;2023-12-20T09:24:41;100365.63;;;-1.26;100.00
79645;BME280;69117;47.148;18.954;2023-12-20T09:27:42;100357.16;;;-1.11;100.00
79645;BME280;69117;47.148;18.954;2023-12-20T09:30:44;100352.94;;;-1.13;100.00
79645;BME280;69117;47.148;18.954;2023-12-20T09:33:47;100347.81;;;-0.96;100.00
79645;BME280;69117;47.148;18.954;2023-12-20T09:36:55;100343.75;;;-1.02;100.00
79645;BME280;69117;47.148;18.954;2023-12-20T09:39:57;100327.22;;;-0.99;100.00
79645;BME280;69117;47.148;18.954;2023-12-20T09:43:04;100330.41;;;-0.75;100.00
79645;BME280;69117;47.148;18.954;2023-12-20T09:46:12;100320.34;;;-0.64;100.00
79645;BME280;69117;47.148;18.954;2023-12-20T09:49:18;100320.19;;;-0.61;100.00
79645;BME280;69117;47.148;18.954;2023-12-20T09:52:22;100309.81;;;-0.61;100.00
79645;BME280;69117;47.148;18.954;2023-12-20T09:55:25;100305.19;;;-0.54;100.00
79645;BME280;69117;47.148;18.954;2023-12-20T09:58:28;100298.69;;;-0.46;100.00
79645;BME280;69117;47.148;18.954;2023-12-20T10:01:31;100303.59;;;-0.22;100.00
79645;BME280;69117;47.148;18.954;2023-12-20T10:04:34;100299.00;;;-0.34;100.00
79645;BME280;69117;47.148;18.954;2023-12-20T10:07:36;100295.25;;;-0.46;100.00
79645;BME280;69117;47.148;18.954;2023-12-20T10:10:38;100287.78;;;-0.52;100.00
79645;BME280;69117;47.148;18.954;2023-12-20T10:13:49;100285.03;;;-0.49;100.00
79645;BME280;69117;47.148;18.954;2023-12-20T10:16:50;100301.34;;;-0.12;100.00
79645;BME280;69117;47.148;18.954;2023-12-20T10:19:52;100275.53;;;0.02;100.00
79645;BME280;69117;47.148;18.954;2023-12-20T10:22:55;100285.19;;;0.00;100.00
79645;BME280;69117;47.148;18.954;2023-12-20T10:26:00;100282.16;;;-0.26;100.00
79645;BME280;69117;47.148;18.954;2023-12-20T10:29:02;100306.09;;;-0.03;100.00
79645;BME280;69117;47.148;18.954;2023-12-20T10:35:25;100282.44;;;0.03;100.00
79645;BME280;69117;47.148;18.954;2023-12-20T10:38:27;100298.28;;;0.14;100.00
79645;BME280;69117;47.148;18.954;2023-12-20T10:41:33;100301.59;;;-0.17;100.00
79645;BME280;69117;47.148;18.954;2023-12-20T10:44:34;100296.88;;;-0.09;100.00
79645;BME280;69117;47.148;18.954;2023-12-20T10:47:36;100290.38;;;0.00;100.00
79645;BME280;69117;47.148;18.954;2023-12-20T10:50:41;100273.84;;;0.18;100.00
79645;BME280;69117;47.148;18.954;2023-12-20T10:53:43;100274.31;;;0.09;100.00
79645;BME280;69117;47.148;18.954;2023-12-20T10:56:52;100268.47;;;0.21;100.00
79645;BME280;69117;47.148;18.954;2023-12-20T10:59:54;100278.94;;;0.20;100.00
79645;BME280;69117;47.148;18.954;2023-12-20T11:03:01;100271.00;;;0.39;100.00
79645;BME280;69117;47.148;18.954;2023-12-20T11:06:26;100252.69;;;0.58;100.00
79645;BME280;69117;47.148;18.954;2023-12-20T11:09:33;100258.13;;;0.69;100.00
79645;BME280;69117;47.148;18.954;2023-12-20T11:12:58;100254.16;;;1.70;100.00
79645;BME280;69117;47.148;18.954;2023-12-20T11:16:04;100237.09;;;2.64;100.00
79645;BME280;69117;47.148;18.954;2023-12-20T11:19:06;100234.53;;;3.31;100.00
79645;BME280;69117;47.148;18.954;2023-12-20T11:22:08;100237.22;;;3.30;100.00
79645;BME280;69117;47.148;18.954;2023-12-20T11:25:11;100224.03;;;3.97;100.00
79645;BME280;69117;47.148;18.954;2023-12-20T11:28:13;100218.06;;;3.95;100.00
79645;BME280;69117;47.148;18.954;2023-12-20T11:31:15;100195.81;;;3.89;100.00
79645;BME280;69117;47.148;18.954;2023-12-20T11:34:17;100193.91;;;4.17;100.00
79645;BME280;69117;47.148;18.954;2023-12-20T11:37:20;100196.34;;;3.81;100.00
79645;BME280;69117;47.148;18.954;2023-12-20T11:40:23;100191.28;;;4.53;100.00
79645;BME280;69117;47.148;18.954;2023-12-20T11:43:36;100185.28;;;4.40;100.00
79645;BME280;69117;47.148;18.954;2023-12-20T11:46:38;100180.56;;;4.45;100.00
79645;BME280;69117;47.148;18.954;2023-12-20T11:49:40;100171.78;;;5.30;100.00
79645;BME280;69117;47.148;18.954;2023-12-20T11:52:41;100150.53;;;6.13;100.00
79645;BME280;69117;47.148;18.954;2023-12-20T11:55:48;100152.16;;;5.80;100.00
79645;BME280;69117;47.148;18.954;2023-12-20T11:58:50;100170.38;;;5.48;100.00
79645;BME280;69117;47.148;18.954;2023-12-20T12:01:52;100166.13;;;5.92;100.00
79645;BME280;69117;47.148;18.954;2023-12-20T12:04:54;100164.47;;;6.68;100.00
79645;BME280;69117;47.148;18.954;2023-12-20T12:07:58;100175.78;;;6.36;100.00
79645;BME280;69117;47.148;18.954;2023-12-20T12:11:00;100160.63;;;6.29;100.00
79645;BME280;69117;47.148;18.954;2023-12-20T12:14:01;100163.06;;;6.21;100.00
79645;BME280;69117;47.148;18.954;2023-12-20T12:17:04;100138.72;;;5.96;100.00
79645;BME280;69117;47.148;18.954;2023-12-20T12:20:07;100156.91;;;6.42;100.00
79645;BME280;69117;47.148;18.954;2023-12-20T12:23:10;100158.31;;;6.58;100.00
79645;BME280;69117;47.148;18.954;2023-12-20T12:26:11;100165.66;;;7.28;100.00
79645;BME280;69117;47.148;18.954;2023-12-20T12:29:13;100151.34;;;7.94;100.00
79645;BME280;69117;47.148;18.954;2023-12-20T12:32:15;100163.88;;;8.71;100.00
79645;BME280;69117;47.148;18.954;2023-12-20T12:35:17;100163.66;;;8.84;100.00
79645;BME280;69117;47.148;18.954;2023-12-20T12:38:22;100151.69;;;8.80;100.00
79645;BME280;69117;47.148;18.954;2023-12-20T12:41:24;100143.09;;;7.05;100.00
79645;BME280;69117;47.148;18.954;2023-12-20T12:44:25;100139.03;;;6.48;100.00
79645;BME280;69117;47.148;18.954;2023-12-20T12:47:27;100146.16;;;7.10;100.00
79645;BME280;69117;47.148;18.954;2023-12-20T12:50:30;100146.41;;;6.54;100.00
79645;BME280;69117;47.148;18.954;2023-12-20T12:53:32;100158.94;;;7.15;100.00
79645;BME280;69117;47.148;18.954;2023-12-20T12:56:34;100155.41;;;7.25;100.00
79645;BME280;69117;47.148;18.954;2023-12-20T12:59:35;100157.44;;;6.69;100.00
79645;BME280;69117;47.148;18.954;2023-12-20T13:02:41;100154.06;;;6.23;100.00
79645;BME280;69117;47.148;18.954;2023-12-20T13:05:43;100148.84;;;5.67;100.00
79645;BME280;69117;47.148;18.954;2023-12-20T13:08:47;100132.31;;;5.20;100.00
79645;BME280;69117;47.148;18.954;2023-12-20T13:11:49;100149.63;;;4.98;100.00
79645;BME280;69117;47.148;18.954;2023-12-20T13:14:51;100139.56;;;4.81;100.00
79645;BME280;69117;47.148;18.954;2023-12-20T13:17:55;100146.13;;;4.75;100.00
79645;BME280;69117;47.148;18.954;2023-12-20T13:20:57;100140.44;;;4.57;100.00
79645;BME280;69117;47.148;18.954;2023-12-20T13:23:59;100132.47;;;4.59;100.00
79645;BME280;69117;47.148;18.954;2023-12-20T13:27:00;100150.47;;;4.75;100.00
79645;BME280;69117;47.148;18.954;2023-12-20T13:30:02;100135.22;;;4.93;100.00
79645;BME280;69117;47.148;18.954;2023-12-20T13:33:05;100136.59;;;5.10;100.00
79645;BME280;69117;47.148;18.954;2023-12-20T13:36:07;100142.38;;;5.37;100.00
79645;BME280;69117;47.148;18.954;2023-12-20T13:39:10;100124.72;;;5.28;100.00
79645;BME280;69117;47.148;18.954;2023-12-20T13:42:11;100143.19;;;5.38;100.00
79645;BME280;69117;47.148;18.954;2023-12-20T13:45:13;100147.56;;;5.15;100.00
79645;BME280;69117;47.148;18.954;2023-12-20T13:48:15;100149.31;;;5.14;100.00
79645;BME280;69117;47.148;18.954;2023-12-20T13:51:16;100147.28;;;5.07;100.00
79645;BME280;69117;47.148;18.954;2023-12-20T13:54:18;100164.78;;;5.06;100.00
79645;BME280;69117;47.148;18.954;2023-12-20T13:57:23;100168.50;;;5.15;100.00
79645;BME280;69117;47.148;18.954;2023-12-20T14:00:44;100163.81;;;5.07;100.00
79645;BME280;69117;47.148;18.954;2023-12-20T14:03:46;100164.00;;;4.93;100.00
79645;BME280;69117;47.148;18.954;2023-12-20T14:06:48;100168.41;;;4.92;100.00
79645;BME280;69117;47.148;18.954;2023-12-20T14:09:50;100162.69;;;4.87;100.00
79645;BME280;69117;47.148;18.954;2023-12-20T14:12:52;100173.16;;;4.87;100.00
79645;BME280;69117;47.148;18.954;2023-12-20T14:15:54;100165.69;;;4.94;100.00
79645;BME280;69117;47.148;18.954;2023-12-20T14:18:56;100181.63;;;4.91;100.00
79645;BME280;69117;47.148;18.954;2023-12-20T14:21:59;100180.44;;;4.95;100.00
79645;BME280;69117;47.148;18.954;2023-12-20T14:25:06;100178.06;;;4.92;100.00
79645;BME280;69117;47.148;18.954;2023-12-20T14:28:08;100189.50;;;5.02;100.00
79645;BME280;69117;47.148;18.954;2023-12-20T14:31:11;100187.25;;;4.97;100.00
79645;BME280;69117;47.148;18.954;2023-12-20T14:34:13;100193.31;;;4.98;100.00
79645;BME280;69117;47.148;18.954;2023-12-20T14:37:17;100181.22;;;4.84;100.00
79645;BME280;69117;47.148;18.954;2023-12-20T14:40:19;100194.53;;;4.81;100.00
79645;BME280;69117;47.148;18.954;2023-12-20T14:43:22;100202.34;;;4.70;100.00
79645;BME280;69117;47.148;18.954;2023-12-20T14:46:24;100191.69;;;4.60;100.00
79645;BME280;69117;47.148;18.954;2023-12-20T14:49:25;100200.59;;;4.57;100.00
79645;BME280;69117;47.148;18.954;2023-12-20T14:52:28;100187.44;;;4.46;100.00
79645;BME280;69117;47.148;18.954;2023-12-20T14:55:30;100184.53;;;4.38;100.00
79645;BME280;69117;47.148;18.954;2023-12-20T14:58:32;100187.38;;;4.35;100.00
79645;BME280;69117;47.148;18.954;2023-12-20T15:01:34;100198.16;;;4.30;100.00
79645;BME280;69117;47.148;18.954;2023-12-20T15:04:38;100203.59;;;4.27;100.00
79645;BME280;69117;47.148;18.954;2023-12-20T15:07:42;100214.78;;;4.29;100.00
79645;BME280;69117;47.148;18.954;2023-12-20T15:10:44;100200.91;;;4.16;100.00
79645;BME280;69117;47.148;18.954;2023-12-20T15:13:46;100213.53;;;4.22;100.00
79645;BME280;69117;47.148;18.954;2023-12-20T15:16:55;100197.44;;;4.28;100.00
79645;BME280;69117;47.148;18.954;2023-12-20T15:19:57;100212.59;;;4.36;100.00
79645;BME280;69117;47.148;18.954;2023-12-20T15:23:00;100213.25;;;4.27;100.00
79645;BME280;69117;47.148;18.954;2023-12-20T15:26:07;100211.31;;;4.29;100.00
79645;BME280;69117;47.148;18.954;2023-12-20T15:29:10;100210.09;;;4.22;100.00
79645;BME280;69117;47.148;18.954;2023-12-20T15:32:13;100223.25;;;4.33;100.00
79645;BME280;69117;47.148;18.954;2023-12-20T15:35:15;100216.47;;;4.30;100.00
79645;BME280;69117;47.148;18.954;2023-12-20T15:38:16;100219.13;;;4.42;100.00